sensor_id;sensor_type;location;lat;lon;timestamp;pressure;altitude;pressure_sealevel;temperature;humidity
71666;BME280;59503;53.486;10.196;2022-12-18T00:00:57;103056.59;;;-7.04;100.00
71666;BME280;59503;53.486;10.196;2022-12-18T00:03:23;103063.75;;;-7.04;100.00
71666;BME280;59503;53.486;10.196;2022-12-18T00:05:50;103065.38;;;-7.03;100.00
71666;BME280;59503;53.486;10.196;2022-12-18T00:08:16;103073.69;;;-7.06;100.00
71666;BME280;59503;53.486;10.196;2022-12-18T00:10:42;103070.78;;;-7.11;100.00
71666;BME280;59503;53.486;10.196;2022-12-18T00:13:09;103074.44;;;-7.12;100.00
71666;BME280;59503;53.486;10.196;2022-12-18T00:15:35;103059.25;;;-7.25;100.00
71666;BME280;59503;53.486;10.196;2022-12-18T00:18:00;103069.06;;;-7.19;100.00
71666;BME280;59503;53.486;10.196;2022-12-18T00:20:26;103060.91;;;-7.03;100.00
71666;BME280;59503;53.486;10.196;2022-12-18T00:22:52;103070.66;;;-7.03;100.00
71666;BME280;59503;53.486;10.196;2022-12-18T00:25:18;103071.28;;;-7.01;100.00
71666;BME280;59503;53.486;10.196;2022-12-18T00:27:43;103071.72;;;-6.98;100.00
71666;BME280;59503;53.486;10.196;2022-12-18T00:30:09;103070.72;;;-6.97;100.00
71666;BME280;59503;53.486;10.196;2022-12-18T00:32:35;103076.19;;;-6.98;100.00
71666;BME280;59503;53.486;10.196;2022-12-18T00:35:00;103063.09;;;-7.06;100.00
71666;BME280;59503;53.486;10.196;2022-12-18T00:37:26;103085.88;;;-7.05;100.00
71666;BME280;59503;53.486;10.196;2022-12-18T00:39:51;103091.53;;;-7.08;100.00
71666;BME280;59503;53.486;10.196;2022-12-18T00:42:17;103067.63;;;-7.21;100.00
71666;BME280;59503;53.486;10.196;2022-12-18T00:45:01;103095.84;;;-7.22;100.00
71666;BME280;59503;53.486;10.196;2022-12-18T00:47:26;103091.22;;;-7.20;100.00
71666;BME280;59503;53.486;10.196;2022-12-18T00:49:51;103091.91;;;-7.11;100.00
71666;BME280;59503;53.486;10.196;2022-12-18T00:52:17;103091.03;;;-7.18;100.00
71666;BME280;59503;53.486;10.196;2022-12-18T00:54:42;103093.03;;;-7.20;100.00
71666;BME280;59503;53.486;10.196;2022-12-18T00:57:08;103090.75;;;-7.23;100.00
71666;BME280;59503;53.486;10.196;2022-12-18T00:59:33;103085.16;;;-7.35;100.00
71666;BME280;59503;53.486;10.196;2022-12-18T01:01:58;103085.97;;;-7.34;100.00
71666;BME280;59503;53.486;10.196;2022-12-18T01:04:24;103093.19;;;-7.43;100.00
71666;BME280;59503;53.486;10.196;2022-12-18T01:06:49;103095.38;;;-7.46;100.00
71666;BME280;59503;53.486;10.196;2022-12-18T01:09:15;103109.56;;;-7.47;100.00
71666;BME280;59503;53.486;10.196;2022-12-18T01:11:40;103096.94;;;-7.52;100.00
71666;BME280;59503;53.486;10.196;2022-12-18T01:14:05;103104.84;;;-7.52;100.00
71666;BME280;59503;53.486;10.196;2022-12-18T01:16:31;103112.13;;;-7.54;100.00
71666;BME280;59503;53.486;10.196;2022-12-18T01:18:56;103110.44;;;-7.61;100.00
71666;BME280;59503;53.486;10.196;2022-12-18T01:21:22;103116.97;;;-7.57;100.00
71666;BME280;59503;53.486;10.196;2022-12-18T01:23:51;103116.53;;;-7.61;100.00
71666;BME280;59503;53.486;10.196;2022-12-18T01:26:17;103107.59;;;-7.60;100.00
71666;BME280;59503;53.486;10.196;2022-12-18T01:28:43;103098.22;;;-7.63;100.00
71666;BME280;59503;53.486;10.196;2022-12-18T01:31:17;103095.84;;;-7.57;100.00
71666;BME280;59503;53.486;10.196;2022-12-18T01:33:44;103090.41;;;-7.56;100.00
71666;BME280;59503;53.486;10.196;2022-12-18T01:36:18;103076.81;;;-7.53;100.00
71666;BME280;59503;53.486;10.196;2022-12-18T01:38:44;103090.94;;;-7.46;100.00
71666;BME280;59503;53.486;10.196;2022-12-18T01:41:09;103082.38;;;-7.48;100.00
71666;BME280;59503;53.486;10.196;2022-12-18T01:43:56;103081.72;;;-7.50;100.00
71666;BME280;59503;53.486;10.196;2022-12-18T01:46:23;103085.38;;;-7.51;100.00
71666;BME280;59503;53.486;10.196;2022-12-18T01:49:01;103084.22;;;-7.63;100.00
71666;BME280;59503;53.486;10.196;2022-12-18T01:51:28;103095.31;;;-7.68;100.00
71666;BME280;59503;53.486;10.196;2022-12-18T01:53:55;103093.59;;;-7.75;100.00
71666;BME280;59503;53.486;10.196;2022-12-18T01:56:21;103103.25;;;-7.82;100.00
71666;BME280;59503;53.486;10.196;2022-12-18T01:58:56;103115.34;;;-7.88;100.00
71666;BME280;59503;53.486;10.196;2022-12-18T02:01:25;103111.97;;;-7.96;100.00
71666;BME280;59503;53.486;10.196;2022-12-18T02:03:50;103117.09;;;-7.80;100.00
71666;BME280;59503;53.486;10.196;2022-12-18T02:06:20;103121.34;;;-7.79;100.00
71666;BME280;59503;53.486;10.196;2022-12-18T02:17:14;103132.28;;;-7.97;100.00
71666;BME280;59503;53.486;10.196;2022-12-18T02:25:21;103119.34;;;-8.06;100.00
71666;BME280;59503;53.486;10.196;2022-12-18T02:27:52;103117.06;;;-8.09;100.00
71666;BME280;59503;53.486;10.196;2022-12-18T02:30:19;103116.59;;;-8.13;100.00
71666;BME280;59503;53.486;10.196;2022-12-18T02:32:48;103116.09;;;-8.08;100.00
71666;BME280;59503;53.486;10.196;2022-12-18T02:35:20;103128.91;;;-8.05;100.00
71666;BME280;59503;53.486;10.196;2022-12-18T02:37:47;103120.16;;;-8.06;100.00
71666;BME280;59503;53.486;10.196;2022-12-18T02:40:14;103130.44;;;-8.11;100.00
71666;BME280;59503;53.486;10.196;2022-12-18T02:42:41;103142.19;;;-8.13;100.00
71666;BME280;59503;53.486;10.196;2022-12-18T02:45:07;103135.25;;;-8.14;100.00
71666;BME280;59503;53.486;10.196;2022-12-18T02:47:37;103137.53;;;-8.11;100.00
71666;BME280;59503;53.486;10.196;2022-12-18T02:53:23;103138.81;;;-8.07;100.00
71666;BME280;59503;53.486;10.196;2022-12-18T02:56:04;103127.38;;;-8.00;100.00
71666;BME280;59503;53.486;10.196;2022-12-18T03:01:19;103122.72;;;-8.12;100.00
71666;BME280;59503;53.486;10.196;2022-12-18T03:04:02;103140.00;;;-8.10;100.00
71666;BME280;59503;53.486;10.196;2022-12-18T03:06:32;103138.19;;;-8.09;100.00
71666;BME280;59503;53.486;10.196;2022-12-18T03:09:02;103138.53;;;-8.12;100.00
71666;BME280;59503;53.486;10.196;2022-12-18T03:11:33;103143.81;;;-8.12;100.00
71666;BME280;59503;53.486;10.196;2022-12-18T03:14:20;103141.38;;;-8.14;100.00
71666;BME280;59503;53.486;10.196;2022-12-18T03:16:49;103150.56;;;-8.24;100.00
71666;BME280;59503;53.486;10.196;2022-12-18T03:19:21;103138.28;;;-8.32;100.00
71666;BME280;59503;53.486;10.196;2022-12-18T03:21:51;103151.06;;;-8.43;100.00
71666;BME280;59503;53.486;10.196;2022-12-18T03:24:20;103157.75;;;-8.55;100.00
71666;BME280;59503;53.486;10.196;2022-12-18T03:26:50;103141.06;;;-8.70;100.00
71666;BME280;59503;53.486;10.196;2022-12-18T03:29:22;103147.97;;;-8.69;100.00
71666;BME280;59503;53.486;10.196;2022-12-18T03:31:56;103151.78;;;-8.72;100.00
71666;BME280;59503;53.486;10.196;2022-12-18T03:34:29;103157.28;;;-8.81;100.00
71666;BME280;59503;53.486;10.196;2022-12-18T03:36:56;103153.25;;;-8.92;100.00
71666;BME280;59503;53.486;10.196;2022-12-18T03:39:23;103162.66;;;-8.98;100.00
71666;BME280;59503;53.486;10.196;2022-12-18T03:45:11;103158.81;;;-8.87;100.00
71666;BME280;59503;53.486;10.196;2022-12-18T03:55:57;103142.28;;;-8.58;100.00
71666;BME280;59503;53.486;10.196;2022-12-18T03:58:25;103150.81;;;-8.56;100.00
71666;BME280;59503;53.486;10.196;2022-12-18T04:00:52;103134.06;;;-8.63;100.00
71666;BME280;59503;53.486;10.196;2022-12-18T04:03:21;103147.88;;;-8.53;100.00
71666;BME280;59503;53.486;10.196;2022-12-18T04:05:50;103139.94;;;-8.53;100.00
71666;BME280;59503;53.486;10.196;2022-12-18T04:08:16;103145.50;;;-8.48;100.00
71666;BME280;59503;53.486;10.196;2022-12-18T04:10:42;103131.69;;;-8.50;100.00
71666;BME280;59503;53.486;10.196;2022-12-18T04:13:09;103142.88;;;-8.48;100.00
71666;BME280;59503;53.486;10.196;2022-12-18T04:15:35;103137.88;;;-8.43;100.00
71666;BME280;59503;53.486;10.196;2022-12-18T04:18:02;103136.88;;;-8.42;100.00
71666;BME280;59503;53.486;10.196;2022-12-18T04:20:28;103127.34;;;-8.43;100.00
71666;BME280;59503;53.486;10.196;2022-12-18T04:22:53;103141.38;;;-8.28;100.00
71666;BME280;59503;53.486;10.196;2022-12-18T04:25:18;103143.56;;;-8.32;100.00
71666;BME280;59503;53.486;10.196;2022-12-18T04:27:44;103136.81;;;-8.34;100.00
71666;BME280;59503;53.486;10.196;2022-12-18T04:30:10;103131.25;;;-8.39;100.00
71666;BME280;59503;53.486;10.196;2022-12-18T04:32:35;103145.06;;;-8.37;100.00
71666;BME280;59503;53.486;10.196;2022-12-18T04:35:01;103115.00;;;-8.65;100.00
71666;BME280;59503;53.486;10.196;2022-12-18T04:37:29;103150.06;;;-8.42;100.00
71666;BME280;59503;53.486;10.196;2022-12-18T04:39:54;103149.16;;;-8.35;100.00
71666;BME280;59503;53.486;10.196;2022-12-18T04:42:20;103152.63;;;-8.34;100.00
71666;BME280;59503;53.486;10.196;2022-12-18T04:44:45;103153.81;;;-8.37;100.00
71666;BME280;59503;53.486;10.196;2022-12-18T04:47:10;103149.88;;;-8.41;100.00
71666;BME280;59503;53.486;10.196;2022-12-18T04:49:36;103118.03;;;-8.54;100.00
71666;BME280;59503;53.486;10.196;2022-12-18T04:52:01;103142.16;;;-8.42;100.00
71666;BME280;59503;53.486;10.196;2022-12-18T04:54:27;103139.69;;;-8.44;100.00
71666;BME280;59503;53.486;10.196;2022-12-18T04:56:52;103143.22;;;-8.51;100.00
71666;BME280;59503;53.486;10.196;2022-12-18T04:59:17;103128.47;;;-8.60;100.00
71666;BME280;59503;53.486;10.196;2022-12-18T05:01:43;103145.56;;;-8.56;100.00
71666;BME280;59503;53.486;10.196;2022-12-18T05:04:08;103146.63;;;-8.65;100.00
71666;BME280;59503;53.486;10.196;2022-12-18T05:06:34;103166.06;;;-8.66;100.00
71666;BME280;59503;53.486;10.196;2022-12-18T05:08:59;103151.78;;;-8.72;100.00
71666;BME280;59503;53.486;10.196;2022-12-18T05:11:24;103150.59;;;-8.69;100.00
71666;BME280;59503;53.486;10.196;2022-12-18T05:13:50;103150.97;;;-8.72;100.00
71666;BME280;59503;53.486;10.196;2022-12-18T05:16:15;103169.69;;;-8.67;100.00
71666;BME280;59503;53.486;10.196;2022-12-18T05:18:41;103173.31;;;-8.68;100.00
71666;BME280;59503;53.486;10.196;2022-12-18T05:21:07;103169.22;;;-8.71;100.00
71666;BME280;59503;53.486;10.196;2022-12-18T05:23:32;103166.13;;;-8.74;100.00
71666;BME280;59503;53.486;10.196;2022-12-18T05:26:00;103182.06;;;-8.68;100.00
71666;BME280;59503;53.486;10.196;2022-12-18T05:28:28;103179.59;;;-8.69;100.00
71666;BME280;59503;53.486;10.196;2022-12-18T05:30:56;103174.13;;;-8.68;100.00
71666;BME280;59503;53.486;10.196;2022-12-18T05:33:24;103173.38;;;-8.76;100.00
71666;BME280;59503;53.486;10.196;2022-12-18T05:35:57;103177.66;;;-8.75;100.00
71666;BME280;59503;53.486;10.196;2022-12-18T05:38:25;103185.03;;;-8.71;100.00
71666;BME280;59503;53.486;10.196;2022-12-18T05:40:51;103170.38;;;-8.73;100.00
71666;BME280;59503;53.486;10.196;2022-12-18T05:43:18;103184.31;;;-8.65;100.00
71666;BME280;59503;53.486;10.196;2022-12-18T05:45:44;103183.16;;;-8.62;100.00
71666;BME280;59503;53.486;10.196;2022-12-18T05:48:10;103183.66;;;-8.59;100.00
71666;BME280;59503;53.486;10.196;2022-12-18T05:50:40;103173.59;;;-8.63;100.00
71666;BME280;59503;53.486;10.196;2022-12-18T05:53:06;103189.41;;;-8.63;100.00
71666;BME280;59503;53.486;10.196;2022-12-18T05:55:33;103184.50;;;-8.66;100.00
71666;BME280;59503;53.486;10.196;2022-12-18T05:57:59;103188.81;;;-8.65;100.00
71666;BME280;59503;53.486;10.196;2022-12-18T06:00:25;103175.34;;;-8.70;100.00
71666;BME280;59503;53.486;10.196;2022-12-18T06:02:50;103187.50;;;-8.69;100.00
71666;BME280;59503;53.486;10.196;2022-12-18T06:05:16;103187.16;;;-8.66;100.00
71666;BME280;59503;53.486;10.196;2022-12-18T06:07:41;103187.16;;;-8.66;100.00
71666;BME280;59503;53.486;10.196;2022-12-18T06:10:07;103178.94;;;-8.71;100.00
71666;BME280;59503;53.486;10.196;2022-12-18T06:12:33;103187.69;;;-8.71;100.00
71666;BME280;59503;53.486;10.196;2022-12-18T06:14:59;103193.81;;;-8.78;100.00
71666;BME280;59503;53.486;10.196;2022-12-18T06:17:29;103200.09;;;-8.79;100.00
71666;BME280;59503;53.486;10.196;2022-12-18T06:19:55;103193.19;;;-8.80;100.00
71666;BME280;59503;53.486;10.196;2022-12-18T06:22:21;103205.53;;;-8.81;100.00
71666;BME280;59503;53.486;10.196;2022-12-18T06:24:46;103187.50;;;-8.92;100.00
71666;BME280;59503;53.486;10.196;2022-12-18T06:27:12;103202.94;;;-8.89;100.00
71666;BME280;59503;53.486;10.196;2022-12-18T06:29:37;103211.03;;;-8.90;100.00
71666;BME280;59503;53.486;10.196;2022-12-18T06:32:03;103218.41;;;-8.86;100.00
71666;BME280;59503;53.486;10.196;2022-12-18T06:34:28;103214.13;;;-8.87;100.00
71666;BME280;59503;53.486;10.196;2022-12-18T06:36:53;103209.84;;;-8.88;100.00
71666;BME280;59503;53.486;10.196;2022-12-18T06:39:19;103213.66;;;-8.90;100.00
71666;BME280;59503;53.486;10.196;2022-12-18T06:41:44;103223.91;;;-8.95;100.00
71666;BME280;59503;53.486;10.196;2022-12-18T06:44:10;103224.19;;;-8.90;100.00
71666;BME280;59503;53.486;10.196;2022-12-18T06:46:35;103235.72;;;-8.91;100.00
71666;BME280;59503;53.486;10.196;2022-12-18T06:49:01;103225.53;;;-8.94;100.00
71666;BME280;59503;53.486;10.196;2022-12-18T06:51:26;103230.44;;;-8.91;100.00
71666;BME280;59503;53.486;10.196;2022-12-18T06:53:52;103226.53;;;-8.95;100.00
71666;BME280;59503;53.486;10.196;2022-12-18T06:56:17;103236.91;;;-8.94;100.00
71666;BME280;59503;53.486;10.196;2022-12-18T06:58:42;103234.75;;;-8.99;100.00
71666;BME280;59503;53.486;10.196;2022-12-18T07:01:11;103237.25;;;-8.97;100.00
71666;BME280;59503;53.486;10.196;2022-12-18T07:03:38;103232.28;;;-9.00;100.00
71666;BME280;59503;53.486;10.196;2022-12-18T07:06:04;103231.81;;;-9.04;100.00
71666;BME280;59503;53.486;10.196;2022-12-18T07:08:30;103219.16;;;-9.08;100.00
71666;BME280;59503;53.486;10.196;2022-12-18T07:10:56;103223.59;;;-9.01;100.00
71666;BME280;59503;53.486;10.196;2022-12-18T07:13:22;103217.69;;;-9.03;100.00
71666;BME280;59503;53.486;10.196;2022-12-18T07:15:47;103213.06;;;-9.01;100.00
71666;BME280;59503;53.486;10.196;2022-12-18T07:18:13;103217.50;;;-9.01;100.00
71666;BME280;59503;53.486;10.196;2022-12-18T07:20:38;103219.66;;;-9.05;100.00
71666;BME280;59503;53.486;10.196;2022-12-18T07:23:04;103239.09;;;-9.06;100.00
71666;BME280;59503;53.486;10.196;2022-12-18T07:25:34;103227.25;;;-9.10;100.00
71666;BME280;59503;53.486;10.196;2022-12-18T07:28:00;103230.19;;;-9.05;100.00
71666;BME280;59503;53.486;10.196;2022-12-18T07:30:25;103243.34;;;-9.05;100.00
71666;BME280;59503;53.486;10.196;2022-12-18T07:32:51;103251.25;;;-9.05;100.00
71666;BME280;59503;53.486;10.196;2022-12-18T07:35:16;103237.75;;;-9.02;100.00
71666;BME280;59503;53.486;10.196;2022-12-18T07:37:42;103255.84;;;-8.99;100.00
71666;BME280;59503;53.486;10.196;2022-12-18T07:40:08;103253.84;;;-8.97;100.00
71666;BME280;59503;53.486;10.196;2022-12-18T07:42:34;103248.44;;;-9.03;100.00
71666;BME280;59503;53.486;10.196;2022-12-18T07:45:00;103249.75;;;-8.99;100.00
71666;BME280;59503;53.486;10.196;2022-12-18T07:47:27;103256.19;;;-9.02;100.00
71666;BME280;59503;53.486;10.196;2022-12-18T07:49:53;103256.19;;;-9.02;100.00
71666;BME280;59503;53.486;10.196;2022-12-18T07:52:18;103268.03;;;-8.98;100.00
71666;BME280;59503;53.486;10.196;2022-12-18T07:54:44;103259.13;;;-8.97;100.00
71666;BME280;59503;53.486;10.196;2022-12-18T07:57:10;103257.50;;;-8.98;100.00
71666;BME280;59503;53.486;10.196;2022-12-18T07:59:36;103264.03;;;-8.85;100.00
71666;BME280;59503;53.486;10.196;2022-12-18T08:02:02;103262.53;;;-8.88;100.00
71666;BME280;59503;53.486;10.196;2022-12-18T08:04:28;103266.00;;;-8.87;100.00
71666;BME280;59503;53.486;10.196;2022-12-18T08:06:53;103278.59;;;-8.75;100.00
71666;BME280;59503;53.486;10.196;2022-12-18T08:09:19;103268.72;;;-8.73;100.00
71666;BME280;59503;53.486;10.196;2022-12-18T08:11:45;103265.72;;;-8.62;100.00
71666;BME280;59503;53.486;10.196;2022-12-18T08:14:10;103256.97;;;-8.62;100.00
71666;BME280;59503;53.486;10.196;2022-12-18T08:16:36;103265.31;;;-8.51;100.00
71666;BME280;59503;53.486;10.196;2022-12-18T08:19:02;103262.50;;;-8.49;100.00
71666;BME280;59503;53.486;10.196;2022-12-18T08:21:29;103247.03;;;-8.52;100.00
71666;BME280;59503;53.486;10.196;2022-12-18T08:23:57;103253.13;;;-8.52;100.00
71666;BME280;59503;53.486;10.196;2022-12-18T08:26:25;103241.09;;;-8.54;100.00
71666;BME280;59503;53.486;10.196;2022-12-18T08:28:54;103243.38;;;-8.51;100.00
71666;BME280;59503;53.486;10.196;2022-12-18T08:31:20;103245.44;;;-8.39;100.00
71666;BME280;59503;53.486;10.196;2022-12-18T08:33:48;103250.06;;;-8.41;100.00
71666;BME280;59503;53.486;10.196;2022-12-18T08:36:15;103243.97;;;-8.41;100.00
71666;BME280;59503;53.486;10.196;2022-12-18T08:38:40;103251.84;;;-8.33;100.00
71666;BME280;59503;53.486;10.196;2022-12-18T08:41:08;103235.19;;;-8.34;100.00
71666;BME280;59503;53.486;10.196;2022-12-18T08:43:34;103244.66;;;-8.25;100.00
71666;BME280;59503;53.486;10.196;2022-12-18T08:46:19;103238.22;;;-8.22;100.00
71666;BME280;59503;53.486;10.196;2022-12-18T08:48:46;103243.78;;;-8.17;100.00
71666;BME280;59503;53.486;10.196;2022-12-18T08:51:12;103256.97;;;-8.17;100.00
71666;BME280;59503;53.486;10.196;2022-12-18T08:53:37;103255.44;;;-8.12;100.00
71666;BME280;59503;53.486;10.196;2022-12-18T08:56:04;103259.53;;;-8.09;100.00
71666;BME280;59503;53.486;10.196;2022-12-18T08:58:30;103254.72;;;-8.06;100.00
71666;BME280;59503;53.486;10.196;2022-12-18T09:01:04;103246.41;;;-7.95;100.00
71666;BME280;59503;53.486;10.196;2022-12-18T09:03:30;103259.97;;;-7.83;100.00
71666;BME280;59503;53.486;10.196;2022-12-18T09:05:56;103253.13;;;-7.78;100.00
71666;BME280;59503;53.486;10.196;2022-12-18T09:08:21;103253.41;;;-7.73;100.00
71666;BME280;59503;53.486;10.196;2022-12-18T09:10:48;103258.00;;;-7.67;100.00
71666;BME280;59503;53.486;10.196;2022-12-18T09:13:14;103258.38;;;-7.55;100.00
71666;BME280;59503;53.486;10.196;2022-12-18T09:15:45;103259.66;;;-7.51;100.00
71666;BME280;59503;53.486;10.196;2022-12-18T09:18:12;103256.47;;;-7.46;100.00
71666;BME280;59503;53.486;10.196;2022-12-18T09:20:38;103243.81;;;-7.51;100.00
71666;BME280;59503;53.486;10.196;2022-12-18T09:23:05;103250.44;;;-7.40;100.00
71666;BME280;59503;53.486;10.196;2022-12-18T09:25:32;103244.47;;;-7.34;100.00
71666;BME280;59503;53.486;10.196;2022-12-18T09:28:17;103246.19;;;-7.27;100.00
71666;BME280;59503;53.486;10.196;2022-12-18T09:30:46;103250.09;;;-7.23;100.00
71666;BME280;59503;53.486;10.196;2022-12-18T09:33:12;103241.34;;;-7.23;100.00
71666;BME280;59503;53.486;10.196;2022-12-18T09:35:40;103254.25;;;-7.14;100.00
71666;BME280;59503;53.486;10.196;2022-12-18T09:38:07;103238.78;;;-7.17;100.00
71666;BME280;59503;53.486;10.196;2022-12-18T09:40:43;103251.91;;;-7.09;100.00
71666;BME280;59503;53.486;10.196;2022-12-18T09:43:19;103243.63;;;-7.06;100.00
71666;BME280;59503;53.486;10.196;2022-12-18T09:45:50;103235.97;;;-7.01;100.00
71666;BME280;59503;53.486;10.196;2022-12-18T09:48:32;103255.34;;;-6.79;100.00
71666;BME280;59503;53.486;10.196;2022-12-18T09:51:05;103250.13;;;-6.73;100.00
71666;BME280;59503;53.486;10.196;2022-12-18T09:53:37;103249.00;;;-6.64;100.00
71666;BME280;59503;53.486;10.196;2022-12-18T09:56:05;103244.97;;;-6.60;100.00
71666;BME280;59503;53.486;10.196;2022-12-18T09:58:35;103256.44;;;-6.53;100.00
71666;BME280;59503;53.486;10.196;2022-12-18T10:01:17;103257.34;;;-6.46;100.00
71666;BME280;59503;53.486;10.196;2022-12-18T10:03:43;103245.53;;;-6.43;100.00
71666;BME280;59503;53.486;10.196;2022-12-18T10:06:29;103251.78;;;-6.29;100.00
71666;BME280;59503;53.486;10.196;2022-12-18T10:17:45;103258.22;;;-5.96;100.00
71666;BME280;59503;53.486;10.196;2022-12-18T10:22:48;103246.03;;;-5.91;100.00
71666;BME280;59503;53.486;10.196;2022-12-18T10:25:31;103256.63;;;-5.91;100.00
71666;BME280;59503;53.486;10.196;2022-12-18T10:28:12;103239.59;;;-5.75;100.00
71666;BME280;59503;53.486;10.196;2022-12-18T10:30:39;103249.09;;;-5.60;100.00
71666;BME280;59503;53.486;10.196;2022-12-18T10:33:05;103264.41;;;-5.55;100.00
71666;BME280;59503;53.486;10.196;2022-12-18T10:35:31;103257.25;;;-5.61;100.00
71666;BME280;59503;53.486;10.196;2022-12-18T10:38:07;103270.84;;;-5.64;100.00
71666;BME280;59503;53.486;10.196;2022-12-18T10:40:52;103273.69;;;-5.66;100.00
71666;BME280;59503;53.486;10.196;2022-12-18T10:43:21;103263.28;;;-5.67;100.00
71666;BME280;59503;53.486;10.196;2022-12-18T10:48:24;103273.69;;;-5.66;100.00
71666;BME280;59503;53.486;10.196;2022-12-18T10:50:51;103261.03;;;-5.70;100.00
71666;BME280;59503;53.486;10.196;2022-12-18T10:53:23;103262.91;;;-5.64;100.00
71666;BME280;59503;53.486;10.196;2022-12-18T10:55:52;103256.84;;;-5.58;100.00
71666;BME280;59503;53.486;10.196;2022-12-18T10:58:29;103257.31;;;-5.48;100.00
71666;BME280;59503;53.486;10.196;2022-12-18T11:01:13;103253.31;;;-5.38;100.00
71666;BME280;59503;53.486;10.196;2022-12-18T11:03:46;103248.84;;;-5.31;100.00
71666;BME280;59503;53.486;10.196;2022-12-18T11:06:13;103229.09;;;-5.28;100.00
71666;BME280;59503;53.486;10.196;2022-12-18T11:08:41;103229.53;;;-5.25;100.00
71666;BME280;59503;53.486;10.196;2022-12-18T11:11:22;103228.13;;;-5.21;100.00
71666;BME280;59503;53.486;10.196;2022-12-18T11:14:16;103241.78;;;-5.17;100.00
71666;BME280;59503;53.486;10.196;2022-12-18T11:16:46;103247.31;;;-5.12;100.00
71666;BME280;59503;53.486;10.196;2022-12-18T11:21:41;103236.59;;;-5.04;100.00
71666;BME280;59503;53.486;10.196;2022-12-18T11:24:19;103238.03;;;-4.95;100.00
71666;BME280;59503;53.486;10.196;2022-12-18T11:26:45;103243.97;;;-4.93;100.00
71666;BME280;59503;53.486;10.196;2022-12-18T11:29:16;103237.25;;;-4.89;100.00
71666;BME280;59503;53.486;10.196;2022-12-18T11:31:42;103236.22;;;-4.88;100.00
71666;BME280;59503;53.486;10.196;2022-12-18T11:34:22;103213.38;;;-4.89;99.88
71666;BME280;59503;53.486;10.196;2022-12-18T11:36:52;103218.09;;;-4.78;100.00
71666;BME280;59503;53.486;10.196;2022-12-18T11:39:35;103207.28;;;-4.76;100.00
71666;BME280;59503;53.486;10.196;2022-12-18T11:42:09;103202.19;;;-4.78;100.00
71666;BME280;59503;53.486;10.196;2022-12-18T11:44:50;103207.09;;;-4.75;100.00
71666;BME280;59503;53.486;10.196;2022-12-18T11:49:52;103201.00;;;-4.69;100.00
71666;BME280;59503;53.486;10.196;2022-12-18T11:52:26;103200.81;;;-4.41;100.00
71666;BME280;59503;53.486;10.196;2022-12-18T11:54:59;103209.22;;;-4.18;98.80
71666;BME280;59503;53.486;10.196;2022-12-18T11:57:38;103206.38;;;-3.97;99.54
71666;BME280;59503;53.486;10.196;2022-12-18T12:00:20;103216.97;;;-3.84;98.74
71666;BME280;59503;53.486;10.196;2022-12-18T12:19:29;103150.41;;;-4.09;98.52
71666;BME280;59503;53.486;10.196;2022-12-18T12:22:07;103157.53;;;-4.09;97.44
71666;BME280;59503;53.486;10.196;2022-12-18T12:30:24;103152.03;;;-4.08;99.48
71666;BME280;59503;53.486;10.196;2022-12-18T12:38:57;103138.75;;;-4.08;100.00
71666;BME280;59503;53.486;10.196;2022-12-18T12:41:26;103141.38;;;-3.95;99.14
71666;BME280;59503;53.486;10.196;2022-12-18T12:44:27;103128.94;;;-3.94;98.13
71666;BME280;59503;53.486;10.196;2022-12-18T12:46:56;103111.38;;;-4.02;97.59
71666;BME280;59503;53.486;10.196;2022-12-18T12:49:27;103114.44;;;-3.92;98.30
71666;BME280;59503;53.486;10.196;2022-12-18T12:52:07;103119.00;;;-3.54;97.22
71666;BME280;59503;53.486;10.196;2022-12-18T12:54:37;103104.09;;;-3.55;94.57
71666;BME280;59503;53.486;10.196;2022-12-18T12:57:15;103097.72;;;-3.41;94.81
71666;BME280;59503;53.486;10.196;2022-12-18T13:00:13;103075.25;;;-3.52;95.69
71666;BME280;59503;53.486;10.196;2022-12-18T13:08:11;103081.03;;;-3.74;96.34
71666;BME280;59503;53.486;10.196;2022-12-18T13:10:41;103089.84;;;-3.74;96.05
71666;BME280;59503;53.486;10.196;2022-12-18T13:18:06;103070.25;;;-3.73;96.19
71666;BME280;59503;53.486;10.196;2022-12-18T13:20:48;103085.94;;;-3.65;96.96
71666;BME280;59503;53.486;10.196;2022-12-18T13:34:24;103091.88;;;-3.69;96.32
71666;BME280;59503;53.486;10.196;2022-12-18T13:36:51;103092.94;;;-3.77;96.51
71666;BME280;59503;53.486;10.196;2022-12-18T13:44:54;103059.09;;;-4.08;97.65
71666;BME280;59503;53.486;10.196;2022-12-18T13:47:40;103070.31;;;-4.06;98.17
71666;BME280;59503;53.486;10.196;2022-12-18T13:50:23;103072.16;;;-4.13;98.38
71666;BME280;59503;53.486;10.196;2022-12-18T13:52:50;103072.41;;;-4.21;99.16
71666;BME280;59503;53.486;10.196;2022-12-18T13:55:18;103079.53;;;-4.28;99.04
71666;BME280;59503;53.486;10.196;2022-12-18T13:57:44;103082.19;;;-4.28;99.47
71666;BME280;59503;53.486;10.196;2022-12-18T14:02:48;103092.00;;;-4.41;100.00
71666;BME280;59503;53.486;10.196;2022-12-18T14:05:31;103108.75;;;-4.41;100.00
71666;BME280;59503;53.486;10.196;2022-12-18T14:08:02;103102.00;;;-4.43;100.00
71666;BME280;59503;53.486;10.196;2022-12-18T14:10:29;103090.41;;;-4.49;100.00
71666;BME280;59503;53.486;10.196;2022-12-18T14:12:54;103095.09;;;-4.44;100.00
71666;BME280;59503;53.486;10.196;2022-12-18T14:17:52;103080.59;;;-4.55;100.00
71666;BME280;59503;53.486;10.196;2022-12-18T14:20:19;103086.50;;;-4.53;100.00
71666;BME280;59503;53.486;10.196;2022-12-18T14:22:47;103078.53;;;-4.53;100.00
71666;BME280;59503;53.486;10.196;2022-12-18T14:27:45;103081.00;;;-4.58;100.00
71666;BME280;59503;53.486;10.196;2022-12-18T14:30:38;103078.13;;;-4.63;100.00
71666;BME280;59503;53.486;10.196;2022-12-18T14:33:18;103076.09;;;-4.67;100.00